Time;durP1;ratioP1;P1;durP2;ratioP2;P2;SDS_P1;SDS_P2;PMS_P1;PMS_P2;Temp;Humidity;BMP_temperature;BMP_pressure;BME280_temperature;BME280_humidity;BME280_pressure;Samples;Min_cycle;Max_cycle;Signal;HPM_P1;HPM_P2
2023/06/04 00:00:30;;;;;;;7.40;4.43;;;;;;;15.49;47.53;102002.41;5090012;28;20024;-63
2023/06/04 00:02:58;;;;;;;6.22;4.47;;;;;;;15.43;48.14;101998.31;5089585;28;20067;-62
2023/06/04 00:05:25;;;;;;;6.75;4.53;;;;;;;15.53;47.69;101995.03;5090762;28;20032;-63
2023/06/04 00:07:51;;;;;;;9.63;6.57;;;;;;;15.47;47.82;101995.44;5092694;28;20067;-64
2023/06/04 00:10:19;;;;;;;5.50;4.80;;;;;;;15.28;48.62;101991.28;5092252;28;20028;-62
2023/06/04 00:12:45;;;;;;;9.10;4.90;;;;;;;15.25;48.72;101982.56;5091233;28;20063;-62
2023/06/04 00:15:12;;;;;;;7.45;4.88;;;;;;;15.33;48.75;101982.94;5081992;28;20059;-62
2023/06/04 00:17:38;;;;;;;10.35;4.38;;;;;;;15.24;49.10;101984.41;5091223;28;20028;-63
2023/06/04 00:20:03;;;;;;;17.73;6.13;;;;;;;15.33;48.89;101980.25;5092510;28;20092;-62
2023/06/04 00:22:29;;;;;;;12.65;5.63;;;;;;;15.36;48.84;101988.97;5092491;28;20032;-63
2023/06/04 00:24:54;;;;;;;15.65;6.50;;;;;;;15.26;49.28;101978.91;5091456;28;20020;-62
2023/06/04 00:27:20;;;;;;;9.75;4.97;;;;;;;15.21;49.84;101980.09;5073766;28;20038;-62
2023/06/04 00:29:45;;;;;;;15.40;6.28;;;;;;;15.27;49.97;101986.03;5089528;28;20463;-64
2023/06/04 00:32:11;;;;;;;16.48;9.35;;;;;;;15.08;49.96;101979.16;5074597;28;20410;-62
2023/06/04 00:34:36;;;;;;;13.50;8.60;;;;;;;15.18;49.89;101982.97;5091976;28;20099;-62
2023/06/04 00:37:02;;;;;;;10.45;5.93;;;;;;;15.07;50.38;101984.63;5057285;28;20280;-62
2023/06/04 00:39:27;;;;;;;12.68;5.93;;;;;;;15.04;50.81;101984.81;5091625;28;20024;-63
2023/06/04 00:41:53;;;;;;;9.63;5.00;;;;;;;15.04;50.68;101984.81;5091289;28;20019;-63
2023/06/04 00:44:21;;;;;;;5.60;5.10;;;;;;;14.95;51.09;101981.75;5091335;28;20035;-62
2023/06/04 00:46:49;;;;;;;5.95;4.47;;;;;;;15.04;51.12;101985.66;5091867;28;20090;-63
2023/06/04 00:49:14;;;;;;;6.22;3.90;;;;;;;14.75;52.08;101974.09;5091604;28;20028;-62
2023/06/04 00:51:40;;;;;;;5.43;4.20;;;;;;;14.83;51.66;101977.19;5091663;28;20079;-62
2023/06/04 00:54:08;;;;;;;5.80;4.28;;;;;;;14.82;51.66;101975.44;5074744;28;20032;-62
2023/06/04 00:56:38;;;;;;;7.38;3.85;;;;;;;14.89;51.71;101979.47;5091604;28;20391;-62
2023/06/04 00:59:09;;;;;;;7.45;3.95;;;;;;;14.86;52.01;101970.78;5094653;28;20019;-62
2023/06/04 01:01:50;;;;;;;5.95;3.63;;;;;;;14.91;51.76;101982.91;5073406;28;20056;-62
2023/06/04 01:04:23;;;;;;;10.70;3.63;;;;;;;14.68;52.80;101983.50;5091593;28;20055;-62
2023/06/04 01:06:53;;;;;;;4.25;3.75;;;;;;;14.70;52.56;101976.22;5091620;28;20028;-62
2023/06/04 01:09:19;;;;;;;8.98;4.13;;;;;;;14.64;52.92;101982.81;5073351;28;20027;-62
2023/06/04 01:11:45;;;;;;;7.35;4.05;;;;;;;14.68;53.04;101987.03;5073430;28;20528;-63
2023/06/04 01:14:13;;;;;;;5.95;3.97;;;;;;;14.53;53.58;101988.00;5095421;28;20028;-62
2023/06/04 01:16:40;;;;;;;5.05;3.53;;;;;;;14.58;53.34;101987.69;5085985;28;20024;-62
2023/06/04 01:19:20;;;;;;;7.75;3.05;;;;;;;14.28;54.48;101992.09;5116055;28;20031;-62
2023/06/04 01:21:50;;;;;;;4.05;3.65;;;;;;;14.32;54.34;101995.44;5102137;28;20028;-62
2023/06/04 01:24:21;;;;;;;7.40;3.80;;;;;;;14.40;53.86;101981.63;5095507;28;20494;-62
2023/06/04 01:26:48;;;;;;;6.45;3.55;;;;;;;14.26;54.31;101983.28;5095219;28;20028;-62
2023/06/04 01:29:13;;;;;;;3.67;3.40;;;;;;;14.47;53.79;101991.88;5095088;28;20020;-62
2023/06/04 01:31:40;;;;;;;5.93;3.95;;;;;;;14.22;54.95;101989.78;5083846;28;20024;-62
2023/06/04 01:34:08;;;;;;;3.72;3.42;;;;;;;14.29;54.49;101990.28;5093858;28;20079;-64
2023/06/04 01:36:33;;;;;;;4.18;3.67;;;;;;;14.44;54.39;101989.38;5095279;28;20099;-62
2023/06/04 01:39:00;;;;;;;7.35;4.47;;;;;;;14.23;54.76;101983.47;5094630;28;20111;-62
2023/06/04 01:41:26;;;;;;;4.25;3.85;;;;;;;14.01;55.79;101975.03;5093992;28;20023;-63
2023/06/04 01:43:51;;;;;;;5.95;4.00;;;;;;;14.16;55.29;101990.16;5076287;28;20027;-62
2023/06/04 01:46:16;;;;;;;7.90;3.95;;;;;;;14.15;55.44;101983.09;5109433;27;20437;-63
2023/06/04 01:48:42;;;;;;;6.45;4.05;;;;;;;14.15;55.44;101979.53;5094810;28;20111;-62
2023/06/04 01:51:07;;;;;;;4.95;3.45;;;;;;;14.02;55.92;101982.97;5094799;28;20067;-62
2023/06/04 01:53:33;;;;;;;6.63;3.85;;;;;;;14.01;55.71;101989.28;5074867;28;20406;-62
2023/06/04 01:56:01;;;;;;;5.18;3.70;;;;;;;14.00;56.06;101979.53;5094126;28;20027;-62
2023/06/04 01:58:27;;;;;;;3.80;3.22;;;;;;;14.01;56.12;101991.09;5110099;28;20024;-62
2023/06/04 02:00:59;;;;;;;8.95;4.07;;;;;;;13.83;56.46;101988.53;5092975;28;20486;-63
2023/06/04 02:03:25;;;;;;;8.02;3.95;;;;;;;13.98;56.21;101986.78;5093756;28;20111;-62
2023/06/04 02:05:51;;;;;;;6.82;3.63;;;;;;;13.82;56.54;101977.91;5075211;28;20513;-62
2023/06/04 02:08:19;;;;;;;4.78;3.90;;;;;;;13.95;56.42;101991.44;5093799;28;20028;-62
2023/06/04 02:10:48;;;;;;;4.78;3.65;;;;;;;13.73;56.98;101989.16;5093897;28;20020;-62
2023/06/04 02:13:15;;;;;;;4.30;3.75;;;;;;;13.63;57.44;101979.00;5109112;27;20032;-62
2023/06/04 02:15:40;;;;;;;4.68;3.97;;;;;;;13.75;57.08;101976.56;5066674;28;20458;-63
2023/06/04 02:18:22;;;;;;;3.90;3.40;;;;;;;13.66;57.37;101979.78;5092984;28;20067;-62
2023/06/04 02:20:48;;;;;;;9.30;4.25;;;;;;;13.58;57.83;101980.22;5093036;28;20032;-62
2023/06/04 02:23:16;;;;;;;6.25;3.80;;;;;;;13.61;57.79;101988.91;5092845;28;20032;-62
2023/06/04 02:25:44;;;;;;;4.30;3.80;;;;;;;13.44;58.40;101977.47;5100791;28;20028;-63
2023/06/04 02:28:12;;;;;;;5.13;3.75;;;;;;;13.57;57.79;101976.69;5093721;28;20040;-62
2023/06/04 02:30:38;;;;;;;5.47;3.60;;;;;;;13.45;58.17;101981.88;5093640;28;20028;-62
2023/06/04 02:33:03;;;;;;;5.18;4.18;;;;;;;13.39;58.35;101975.06;5093785;28;20064;-62
2023/06/04 02:35:31;;;;;;;5.60;4.15;;;;;;;13.58;57.95;101983.75;5093940;28;20479;-62
2023/06/04 02:37:57;;;;;;;4.18;3.78;;;;;;;13.44;58.48;101990.81;5093193;28;20094;-63
2023/06/04 02:40:26;;;;;;;10.45;4.70;;;;;;;13.44;58.37;101985.47;5093315;28;20474;-62
2023/06/04 02:42:55;;;;;;;8.10;3.70;;;;;;;13.30;59.16;101994.28;5093197;28;20027;-62
2023/06/04 02:45:22;;;;;;;6.82;3.88;;;;;;;13.24;59.30;101982.09;5092918;28;20032;-62
2023/06/04 02:47:47;;;;;;;5.93;4.10;;;;;;;13.30;58.80;101984.47;5092411;28;20134;-62
2023/06/04 02:50:15;;;;;;;5.18;4.32;;;;;;;13.30;58.90;101988.94;5104442;28;20556;-62
2023/06/04 02:52:43;;;;;;;6.25;4.03;;;;;;;13.20;59.13;101972.53;5075929;28;20045;-62
2023/06/04 02:55:09;;;;;;;4.57;3.75;;;;;;;13.19;59.43;101987.69;5075642;28;20028;-62
2023/06/04 02:57:35;;;;;;;6.25;4.10;;;;;;;13.14;59.70;101986.22;5093719;28;20091;-63
2023/06/04 03:00:08;;;;;;;6.65;4.28;;;;;;;13.19;59.49;101992.19;5074181;28;20119;-63
2023/06/04 03:02:33;;;;;;;4.38;3.97;;;;;;;13.21;59.26;101990.28;5074950;28;20024;-62
2023/06/04 03:04:58;;;;;;;10.25;4.38;;;;;;;13.19;59.29;101986.84;5108169;27;20485;-62
2023/06/04 03:07:24;;;;;;;5.13;3.92;;;;;;;13.05;59.93;101984.06;5092438;28;20020;-62
2023/06/04 03:09:50;;;;;;;8.75;4.03;;;;;;;13.07;59.94;101988.38;5093214;28;20051;-62
2023/06/04 03:12:18;;;;;;;8.98;4.57;;;;;;;12.89;60.60;101992.06;5093406;28;20020;-63
2023/06/04 03:14:43;;;;;;;7.18;4.57;;;;;;;13.04;60.07;101985.03;5092893;28;20034;-62
2023/06/04 03:17:10;;;;;;;6.03;4.13;;;;;;;12.95;60.42;101989.06;5100476;28;20032;-62
2023/06/04 03:19:42;;;;;;;8.07;4.40;;;;;;;12.90;60.70;101989.28;5090509;28;20043;-62
2023/06/04 03:22:10;;;;;;;6.28;4.22;;;;;;;12.73;60.80;101986.69;5086000;28;20386;-62
2023/06/04 03:24:40;;;;;;;6.90;4.53;;;;;;;12.94;60.64;101982.88;5069463;28;20110;-62
2023/06/04 03:27:08;;;;;;;5.15;4.20;;;;;;;12.92;60.60;101984.75;5074628;28;20592;-62
2023/06/04 03:29:34;;;;;;;12.13;4.63;;;;;;;12.70;60.87;101979.69;5091185;28;20040;-62
2023/06/04 03:32:00;;;;;;;5.07;4.25;;;;;;;12.83;60.91;101984.41;5091462;28;20482;-63
2023/06/04 03:34:31;;;;;;;9.13;4.28;;;;;;;12.74;61.09;101977.75;5108023;28;20024;-62
2023/06/04 03:36:57;;;;;;;8.05;4.43;;;;;;;12.82;60.90;101993.31;5058377;28;20028;-62
2023/06/04 03:39:23;;;;;;;5.25;4.35;;;;;;;12.76;61.29;101986.50;5092179;28;20498;-62
2023/06/04 03:41:49;;;;;;;6.78;4.10;;;;;;;12.90;60.71;101989.28;5090932;28;20027;-63
2023/06/04 03:44:15;;;;;;;6.93;4.53;;;;;;;12.66;61.34;101987.97;5072338;28;20111;-62
2023/06/04 03:46:44;;;;;;;6.70;4.43;;;;;;;12.63;61.37;101982.78;5089664;28;20077;-62
2023/06/04 03:49:11;;;;;;;11.60;4.80;;;;;;;12.64;61.76;101985.38;5092519;28;20024;-63
2023/06/04 03:51:37;;;;;;;8.95;4.38;;;;;;;12.71;61.38;101992.13;5072193;28;20445;-62
2023/06/04 03:54:03;;;;;;;5.65;4.07;;;;;;;12.61;61.98;101988.19;5091399;28;20020;-62
2023/06/04 03:56:28;;;;;;;7.82;5.10;;;;;;;12.71;61.89;101989.44;5074562;28;20041;-62
2023/06/04 03:58:54;;;;;;;7.07;4.47;;;;;;;12.70;62.02;101987.69;5091000;28;20039;-64
2023/06/04 04:01:20;;;;;;;6.35;4.53;;;;;;;12.68;61.38;101986.09;5092025;28;20497;-63
2023/06/04 04:03:48;;;;;;;7.32;5.13;;;;;;;12.50;62.20;101993.28;5107320;28;20057;-62
2023/06/04 04:06:14;;;;;;;7.13;4.53;;;;;;;12.68;61.44;101996.75;5091609;28;20029;-63
2023/06/04 04:08:42;;;;;;;5.63;4.28;;;;;;;12.77;61.50;101996.25;5073152;28;20068;-62
2023/06/04 04:11:08;;;;;;;10.75;5.13;;;;;;;12.68;62.01;101994.09;5090020;28;20024;-63
2023/06/04 04:13:33;;;;;;;7.65;4.75;;;;;;;12.79;61.89;101993.50;5092303;28;20443;-62
2023/06/04 04:15:59;;;;;;;5.25;4.38;;;;;;;12.77;61.93;101995.41;5090922;28;20107;-62
2023/06/04 04:18:27;;;;;;;5.13;4.60;;;;;;;12.79;61.67;101990.81;5090902;28;20501;-63
2023/06/04 04:20:53;;;;;;;5.40;4.70;;;;;;;12.72;61.27;101992.97;5090180;28;20069;-62
2023/06/04 04:23:18;;;;;;;9.20;5.10;;;;;;;12.84;61.33;101992.31;5091400;28;20023;-63
2023/06/04 04:25:44;;;;;;;7.55;4.78;;;;;;;12.73;61.76;101998.25;5091480;28;20024;-63
2023/06/04 04:28:09;;;;;;;6.88;4.60;;;;;;;12.81;61.34;101989.81;5091922;28;20103;-62
2023/06/04 04:30:35;;;;;;;8.68;4.80;;;;;;;12.85;61.38;101991.38;5071998;28;20390;-63
2023/06/04 04:33:06;;;;;;;8.90;5.20;;;;;;;12.85;60.77;101990.50;5091741;28;20492;-62
2023/06/04 04:35:35;;;;;;;5.10;4.50;;;;;;;13.06;60.50;101989.34;5073591;28;20592;-62
2023/06/04 04:38:03;;;;;;;6.28;4.90;;;;;;;12.95;60.47;101979.22;5091777;28;20028;-63
2023/06/04 04:40:28;;;;;;;7.55;4.55;;;;;;;13.10;60.35;101993.56;5074224;28;20435;-62
2023/06/04 04:42:54;;;;;;;10.00;5.10;;;;;;;13.17;60.10;101994.06;5091599;28;20102;-63
2023/06/04 04:45:20;;;;;;;10.18;4.93;;;;;;;13.08;60.20;102002.59;5090080;28;20161;-63
2023/06/04 04:47:46;;;;;;;5.43;4.72;;;;;;;13.09;59.96;101993.66;5108328;28;20475;-62
2023/06/04 04:50:12;;;;;;;6.95;4.65;;;;;;;13.05;61.24;101995.59;5091467;28;20059;-62
2023/06/04 04:52:38;;;;;;;7.82;4.68;;;;;;;13.09;60.04;101994.50;5107789;28;20039;-62
2023/06/04 04:55:03;;;;;;;5.72;4.75;;;;;;;13.22;61.18;102004.50;5091364;28;20563;-62
2023/06/04 04:57:29;;;;;;;8.93;4.95;;;;;;;13.24;60.27;101997.28;5092339;28;20063;-62
2023/06/04 04:59:55;;;;;;;7.47;5.18;;;;;;;13.29;59.86;101998.75;5091229;28;20391;-62
2023/06/04 05:02:20;;;;;;;8.25;4.72;;;;;;;13.14;59.47;101991.56;5091617;28;20449;-64
2023/06/04 05:04:46;;;;;;;4.53;4.10;;;;;;;13.41;59.29;101997.19;5072905;28;20023;-62
2023/06/04 05:07:11;;;;;;;8.52;4.63;;;;;;;13.47;59.58;101999.56;5073843;28;20024;-62
2023/06/04 05:09:37;;;;;;;11.35;4.60;;;;;;;13.57;59.06;102002.56;5107100;28;20056;-62
2023/06/04 05:12:02;;;;;;;5.07;4.57;;;;;;;13.51;58.77;102008.25;5091559;28;20080;-62
2023/06/04 05:14:28;;;;;;;6.55;4.50;;;;;;;13.50;58.77;102006.50;5073537;28;20036;-62
2023/06/04 05:16:56;;;;;;;8.60;4.72;;;;;;;13.52;58.98;102010.81;5090906;28;20039;-62
2023/06/04 05:19:24;;;;;;;6.30;4.40;;;;;;;13.53;59.09;102014.34;5073206;28;20073;-64
2023/06/04 05:21:50;;;;;;;6.15;4.35;;;;;;;13.68;58.54;102012.63;5091617;28;20031;-62
2023/06/04 05:24:16;;;;;;;8.52;5.57;;;;;;;13.72;58.23;102016.84;5091244;28;20475;-62
2023/06/04 05:26:41;;;;;;;5.38;4.88;;;;;;;13.81;58.51;102009.16;5091275;28;20024;-63
2023/06/04 05:29:09;;;;;;;8.05;4.60;;;;;;;13.77;59.07;102002.28;5089795;28;20041;-62
2023/06/04 05:31:36;;;;;;;5.25;4.70;;;;;;;13.83;58.48;102015.28;5073524;28;20016;-62
2023/06/04 05:34:04;;;;;;;6.38;4.88;;;;;;;13.91;57.48;102009.47;5104773;28;20028;-63
2023/06/04 05:36:30;;;;;;;7.43;5.18;;;;;;;13.94;57.70;102008.44;5077519;28;20080;-62
2023/06/04 05:38:59;;;;;;;7.60;4.60;;;;;;;14.07;56.96;102010.31;5090508;28;20372;-62
2023/06/04 05:41:28;;;;;;;6.80;4.60;;;;;;;14.12;56.83;101998.47;5091769;28;20047;-63
2023/06/04 05:43:53;;;;;;;6.68;4.85;;;;;;;14.28;56.50;102012.66;5089606;28;20032;-63
2023/06/04 05:46:19;;;;;;;6.07;4.88;;;;;;;14.18;56.69;102006.16;5090645;28;20138;-62
2023/06/04 05:48:45;;;;;;;6.28;4.95;;;;;;;14.23;56.74;101996.00;5090236;28;20494;-64
2023/06/04 05:51:12;;;;;;;5.85;4.78;;;;;;;14.38;56.35;102004.91;5106120;28;20087;-62
2023/06/04 05:53:38;;;;;;;4.88;4.40;;;;;;;14.43;56.29;102009.03;5090925;28;20028;-63
2023/06/04 05:56:03;;;;;;;12.80;4.53;;;;;;;14.55;56.10;102007.47;5090485;28;20157;-62
2023/06/04 05:58:29;;;;;;;9.25;4.75;;;;;;;14.65;55.88;102007.78;5105416;28;20081;-63
2023/06/04 06:00:57;;;;;;;5.15;4.65;;;;;;;14.71;55.33;102002.91;5093187;28;20079;-62
2023/06/04 06:03:22;;;;;;;6.25;4.75;;;;;;;14.86;56.36;102003.78;5093681;28;20487;-64
2023/06/04 06:05:48;;;;;;;7.50;4.70;;;;;;;14.94;54.99;102017.56;5093580;28;20035;-64
2023/06/04 06:08:14;;;;;;;5.22;4.60;;;;;;;14.95;53.86;102026.44;5094364;28;20028;-64
2023/06/04 06:10:40;;;;;;;6.75;4.95;;;;;;;15.03;53.49;102018.78;5109222;28;20032;-62
2023/06/04 06:13:05;;;;;;;5.40;4.80;;;;;;;15.04;53.43;102012.47;5093379;28;20472;-62
2023/06/04 06:15:31;;;;;;;5.00;4.57;;;;;;;15.17;53.86;102015.22;5093932;28;20032;-62
2023/06/04 06:17:56;;;;;;;5.78;5.05;;;;;;;15.32;53.49;102014.22;5094629;28;20030;-62
2023/06/04 06:20:22;;;;;;;6.15;4.38;;;;;;;15.42;52.95;102019.88;5093467;28;20091;-62
2023/06/04 06:22:48;;;;;;;5.90;4.50;;;;;;;15.42;52.81;102017.19;5075423;28;20027;-62
2023/06/04 06:25:16;;;;;;;5.82;5.10;;;;;;;15.48;52.77;102015.94;5061551;28;20028;-63
2023/06/04 06:27:42;;;;;;;7.50;4.63;;;;;;;15.66;51.92;102022.78;5092628;28;20059;-62
2023/06/04 06:30:08;;;;;;;7.43;4.88;;;;;;;15.62;52.83;102023.94;5092759;28;20486;-62
2023/06/04 06:32:35;;;;;;;7.10;5.00;;;;;;;15.76;52.36;102025.72;5093563;28;20473;-62
2023/06/04 06:35:01;;;;;;;7.82;4.75;;;;;;;15.83;52.20;102029.75;5093368;28;20027;-62
2023/06/04 06:37:26;;;;;;;5.75;4.85;;;;;;;16.01;51.33;102028.50;5076003;28;20043;-62
2023/06/04 06:39:52;;;;;;;11.70;5.13;;;;;;;15.93;51.23;102035.34;5094305;28;20032;-62
2023/06/04 06:42:18;;;;;;;6.93;4.78;;;;;;;16.12;50.53;102033.16;5093612;28;20016;-62
2023/06/04 06:44:46;;;;;;;8.10;4.95;;;;;;;16.19;50.17;102036.28;5091281;28;20051;-62
2023/06/04 06:47:14;;;;;;;7.75;4.53;;;;;;;16.20;51.35;102033.50;5094084;28;20486;-62
2023/06/04 06:49:41;;;;;;;5.55;4.90;;;;;;;16.29;49.45;102027.47;5093672;28;20024;-62
2023/06/04 06:52:06;;;;;;;5.60;4.38;;;;;;;16.37;49.46;102035.03;5093670;28;20020;-63
2023/06/04 06:54:32;;;;;;;6.97;4.28;;;;;;;16.60;49.53;102046.88;5093837;28;20058;-62
2023/06/04 06:56:57;;;;;;;5.85;5.07;;;;;;;16.71;48.77;102052.38;5093940;28;20024;-62
2023/06/04 06:59:23;;;;;;;7.22;4.38;;;;;;;16.70;47.72;102039.03;5074741;28;20093;-62
2023/06/04 07:01:48;;;;;;;5.35;4.82;;;;;;;16.84;47.38;102047.00;5075580;28;20031;-62
2023/06/04 07:04:13;;;;;;;7.50;4.65;;;;;;;16.90;47.52;102032.28;5093368;28;20030;-62
2023/06/04 07:06:41;;;;;;;7.80;4.45;;;;;;;17.01;48.07;102065.50;5093549;28;20021;-63
2023/06/04 07:09:09;;;;;;;5.70;4.43;;;;;;;17.06;47.49;102048.16;5074269;28;20035;-63
2023/06/04 07:11:37;;;;;;;6.68;4.68;;;;;;;17.14;46.78;102059.25;5093626;28;20095;-63
2023/06/04 07:14:05;;;;;;;8.60;4.68;;;;;;;17.21;46.36;102057.84;5071054;28;20020;-63
2023/06/04 07:16:31;;;;;;;5.47;4.38;;;;;;;17.30;46.51;102045.59;5092324;28;20103;-63
2023/06/04 07:18:56;;;;;;;7.68;4.57;;;;;;;17.51;45.65;102044.00;5073126;28;20111;-64
2023/06/04 07:21:23;;;;;;;6.03;4.72;;;;;;;17.59;46.28;102047.00;5093403;28;20348;-63
2023/06/04 07:23:51;;;;;;;8.13;4.40;;;;;;;17.82;45.10;102052.53;5074831;28;20092;-63
2023/06/04 07:26:20;;;;;;;4.50;4.07;;;;;;;17.92;45.25;102042.81;5073801;28;20433;-63
2023/06/04 07:28:47;;;;;;;4.80;4.13;;;;;;;18.02;44.25;102045.66;5089947;28;20085;-64
2023/06/04 07:31:19;;;;;;;6.25;4.63;;;;;;;18.06;42.97;102049.81;5092500;28;20107;-64
2023/06/04 07:33:45;;;;;;;6.18;4.28;;;;;;;18.21;43.33;102037.06;5074690;28;20020;-64
2023/06/04 07:36:13;;;;;;;6.88;5.32;;;;;;;18.28;42.53;102046.38;5093317;28;20505;-64
2023/06/04 07:38:39;;;;;;;9.40;4.93;;;;;;;18.38;42.93;102055.44;5074048;28;20016;-63
2023/06/04 07:41:04;;;;;;;8.35;4.40;;;;;;;18.47;42.39;102056.56;5074198;28;20035;-64
2023/06/04 07:43:30;;;;;;;7.60;4.57;;;;;;;18.46;43.00;102046.78;5074697;28;20025;-64
2023/06/04 07:45:55;;;;;;;8.65;4.95;;;;;;;18.58;41.46;102046.69;5073797;28;20440;-64
2023/06/04 07:48:20;;;;;;;7.03;4.20;;;;;;;18.76;40.45;102051.66;5093242;28;20497;-64
2023/06/04 07:50:46;;;;;;;4.45;4.03;;;;;;;18.87;41.36;102051.66;5091182;28;20080;-62
2023/06/04 07:53:11;;;;;;;5.80;4.57;;;;;;;19.01;41.43;102051.44;5092060;28;20048;-64
2023/06/04 07:55:37;;;;;;;4.63;4.22;;;;;;;19.12;40.21;102050.59;5074124;28;20028;-63
2023/06/04 07:58:02;;;;;;;4.95;4.35;;;;;;;19.18;40.87;102051.94;5108143;28;20030;-63
2023/06/04 08:00:27;;;;;;;7.28;4.65;;;;;;;19.28;39.81;102042.97;5090956;28;20023;-63
2023/06/04 08:02:53;;;;;;;6.05;4.40;;;;;;;19.42;39.90;102054.47;5081022;28;20052;-63
2023/06/04 08:05:18;;;;;;;6.65;3.95;;;;;;;19.56;39.00;102059.63;5089693;28;20032;-64
2023/06/04 08:07:44;;;;;;;8.82;4.20;;;;;;;19.80;38.27;102045.13;5073183;28;20122;-64
2023/06/04 08:10:10;;;;;;;13.98;4.47;;;;;;;19.77;38.21;102039.97;5107807;28;20023;-64
2023/06/04 08:12:35;;;;;;;8.48;4.70;;;;;;;19.88;39.02;102051.59;5102941;28;20028;-64
2023/06/04 08:15:01;;;;;;;5.82;3.53;;;;;;;19.97;37.43;102052.63;5091508;28;20172;-64
2023/06/04 08:17:26;;;;;;;7.97;4.50;;;;;;;20.07;36.74;102044.63;5107809;28;20093;-64
2023/06/04 08:19:51;;;;;;;5.15;3.95;;;;;;;20.19;36.29;102054.41;5092010;28;20506;-64
2023/06/04 08:22:17;;;;;;;5.60;3.88;;;;;;;20.23;36.17;102055.84;5090416;28;20020;-64
2023/06/04 08:24:43;;;;;;;5.20;3.85;;;;;;;20.35;35.48;102052.13;5107700;28;20043;-64
2023/06/04 08:27:08;;;;;;;5.05;3.72;;;;;;;20.47;35.88;102057.44;5058018;28;20392;-63
2023/06/04 08:29:35;;;;;;;4.82;3.53;;;;;;;20.69;35.34;102059.19;5087449;28;20125;-64
2023/06/04 08:32:02;;;;;;;7.70;3.50;;;;;;;20.67;33.17;102062.00;5106934;28;20039;-64
2023/06/04 08:34:27;;;;;;;6.72;3.70;;;;;;;20.71;32.86;102055.38;5073883;28;20051;-64
2023/06/04 08:36:55;;;;;;;5.13;3.67;;;;;;;20.96;33.37;102058.63;5091835;28;20478;-64
2023/06/04 08:39:22;;;;;;;4.88;3.58;;;;;;;21.12;33.94;102056.28;5091881;28;20020;-64
2023/06/04 08:41:51;;;;;;;3.58;3.08;;;;;;;21.03;33.45;102052.56;5092358;28;20023;-64
2023/06/04 08:44:17;;;;;;;3.57;3.00;;;;;;;21.29;33.43;102057.47;5091711;28;20022;-63
2023/06/04 08:46:46;;;;;;;5.22;3.40;;;;;;;21.30;32.30;102057.34;5091648;28;20106;-64
2023/06/04 08:49:12;;;;;;;6.82;3.30;;;;;;;21.42;32.52;102058.13;5091079;28;20068;-62
2023/06/04 08:51:38;;;;;;;4.55;2.97;;;;;;;21.49;31.05;102053.00;5091829;28;20048;-63
2023/06/04 08:54:05;;;;;;;2.75;2.53;;;;;;;21.61;31.11;102057.31;5091459;28;20057;-63
2023/06/04 08:56:32;;;;;;;6.57;2.67;;;;;;;21.60;28.59;102060.19;5073878;28;20396;-63
2023/06/04 08:59:02;;;;;;;3.30;2.30;;;;;;;21.72;28.74;102067.19;5105133;28;20020;-64
2023/06/04 09:01:28;;;;;;;4.80;2.92;;;;;;;21.76;28.45;102060.47;5091735;28;20024;-64
2023/06/04 09:03:55;;;;;;;3.70;2.92;;;;;;;21.81;29.05;102062.78;5107351;28;20026;-64
2023/06/04 09:06:26;;;;;;;5.38;2.58;;;;;;;22.02;29.28;102068.91;5107225;28;20538;-64
2023/06/04 09:08:52;;;;;;;3.58;3.03;;;;;;;21.96;28.47;102064.91;5090770;28;20090;-63
2023/06/04 09:11:21;;;;;;;5.15;2.90;;;;;;;22.08;28.31;102062.94;5091324;28;20032;-64
2023/06/04 09:13:47;;;;;;;3.05;2.42;;;;;;;22.39;28.10;102071.81;5107302;28;20035;-64
2023/06/04 09:16:15;;;;;;;8.80;2.63;;;;;;;22.42;27.74;102060.69;5091058;28;20028;-64
2023/06/04 09:18:45;;;;;;;4.50;2.30;;;;;;;22.49;26.97;102073.66;5091421;28;20031;-63
2023/06/04 09:21:10;;;;;;;3.30;2.10;;;;;;;22.65;27.37;102069.34;5091172;28;20525;-64
2023/06/04 09:23:47;;;;;;;5.53;2.50;;;;;;;22.78;28.71;102069.03;5091777;28;20031;-64
2023/06/04 09:26:13;;;;;;;3.50;2.60;;;;;;;22.81;26.84;102073.31;5091404;28;20126;-62
2023/06/04 09:28:42;;;;;;;5.93;2.60;;;;;;;22.92;26.78;102065.00;5091378;28;20034;-62
2023/06/04 09:31:15;;;;;;;2.58;2.22;;;;;;;22.99;27.76;102065.28;5073091;28;20031;-63
2023/06/04 09:33:49;;;;;;;3.97;2.47;;;;;;;23.17;28.32;102063.47;5093737;28;20035;-64
2023/06/04 09:36:15;;;;;;;4.95;2.35;;;;;;;23.18;26.61;102061.63;5095406;28;20020;-62
2023/06/04 09:38:41;;;;;;;4.30;2.75;;;;;;;23.19;26.55;102066.91;5095421;28;20028;-64
2023/06/04 09:41:21;;;;;;;2.10;2.00;;;;;;;23.26;26.89;102059.88;5094998;28;20023;-64
2023/06/04 09:43:47;;;;;;;2.55;2.35;;;;;;;23.25;27.32;102058.16;5095388;28;20477;-62
2023/06/04 09:46:17;;;;;;;8.93;2.55;;;;;;;23.35;26.16;102061.72;5094576;28;20053;-62
2023/06/04 09:48:44;;;;;;;3.88;2.22;;;;;;;23.45;26.16;102061.63;5095227;28;20024;-63
2023/06/04 09:51:11;;;;;;;3.17;2.40;;;;;;;23.44;25.63;102061.78;5094396;28;20047;-64
2023/06/04 09:53:38;;;;;;;6.07;2.53;;;;;;;23.50;26.84;102061.16;5110658;28;20095;-64
2023/06/04 09:56:06;;;;;;;3.58;2.63;;;;;;;23.77;27.16;102049.47;5095027;28;20133;-64
2023/06/04 09:58:31;;;;;;;2.97;2.17;;;;;;;23.84;26.04;102053.28;5094948;28;20028;-63
2023/06/04 10:00:58;;;;;;;4.18;2.47;;;;;;;23.89;26.18;102053.66;5094083;28;20031;-64
2023/06/04 10:03:27;;;;;;;3.42;2.38;;;;;;;23.93;26.08;102040.63;5076882;28;20049;-63
2023/06/04 10:05:56;;;;;;;2.83;2.20;;;;;;;23.94;26.20;102045.91;5076650;28;20111;-64
2023/06/04 10:08:23;;;;;;;3.53;2.10;;;;;;;23.96;26.42;102052.03;5094453;28;20455;-64
2023/06/04 10:10:52;;;;;;;4.68;2.67;;;;;;;24.07;27.01;102050.09;5109842;28;20024;-64
2023/06/04 10:13:18;;;;;;;;;;;;;;;24.47;26.78;102052.31;5094861;28;20042;-64
2023/06/04 10:15:45;;;;;;;4.90;2.35;;;;;;;24.44;26.57;102055.34;5094101;28;19914;-64
2023/06/04 10:18:11;;;;;;;6.80;2.45;;;;;;;24.44;26.15;102053.50;5094738;28;20513;-64
2023/06/04 10:20:38;;;;;;;3.97;2.15;;;;;;;24.38;25.99;102045.91;5076277;28;20020;-64
2023/06/04 10:23:04;;;;;;;4.57;2.15;;;;;;;24.60;25.01;102044.59;5093919;28;20530;-64
2023/06/04 10:25:30;;;;;;;5.18;2.25;;;;;;;24.76;25.57;102053.88;5094153;28;20024;-64
2023/06/04 10:27:56;;;;;;;7.88;2.20;;;;;;;24.85;26.33;102053.75;5076308;28;20391;-64
2023/06/04 10:30:22;;;;;;;2.60;1.95;;;;;;;24.89;25.94;102055.16;5093650;28;20024;-63
2023/06/04 10:32:47;;;;;;;4.97;2.08;;;;;;;25.05;25.27;102057.09;5094235;28;20024;-62
2023/06/04 10:35:15;;;;;;;4.57;2.13;;;;;;;25.05;24.26;102058.97;5109862;28;20015;-62
2023/06/04 10:37:41;;;;;;;2.63;2.05;;;;;;;25.03;24.22;102056.44;5110085;28;20051;-64
2023/06/04 10:40:08;;;;;;;3.17;2.00;;;;;;;24.98;24.77;102053.34;5094086;28;20467;-64
2023/06/04 10:42:42;;;;;;;4.68;2.08;;;;;;;25.08;24.91;102054.06;5093889;28;20028;-64
2023/06/04 10:45:09;;;;;;;4.68;2.00;;;;;;;25.21;24.25;102041.88;5073286;28;20021;-64
2023/06/04 10:47:37;;;;;;;3.53;2.10;;;;;;;25.32;23.78;102050.63;5089631;28;20142;-63
2023/06/04 10:50:13;;;;;;;1.95;1.77;;;;;;;25.35;24.03;102054.88;5088842;28;20040;-62
2023/06/04 10:52:50;;;;;;;2.03;1.90;;;;;;;25.46;24.12;102061.91;5073921;28;20035;-62
2023/06/04 10:55:19;;;;;;;2.60;1.90;;;;;;;25.28;23.63;102053.84;5092805;28;20479;-64
2023/06/04 10:58:01;;;;;;;3.50;1.88;;;;;;;25.64;23.95;102056.34;5093896;28;20051;-64
2023/06/04 11:00:45;;;;;;;4.38;1.70;;;;;;;25.63;24.19;102049.22;5093213;28;20491;-62
2023/06/04 11:03:12;;;;;;;1.90;1.70;;;;;;;25.59;24.55;102046.81;5093862;28;20024;-64
2023/06/04 11:05:40;;;;;;;2.72;1.63;;;;;;;25.54;24.56;102043.72;5093284;28;20051;-64
2023/06/04 11:08:06;;;;;;;2.53;1.75;;;;;;;25.92;22.95;102046.06;5109300;28;20027;-63
2023/06/04 11:10:37;;;;;;;3.28;1.50;;;;;;;25.83;23.70;102039.75;5093294;28;20107;-63
2023/06/04 11:13:03;;;;;;;5.60;1.67;;;;;;;25.93;24.21;102045.88;5093506;28;20428;-63
2023/06/04 11:15:48;;;;;;;2.10;1.58;;;;;;;26.18;24.14;102040.47;5092555;28;20054;-64
2023/06/04 11:18:21;;;;;;;1.92;1.70;;;;;;;26.10;23.78;102035.84;5093361;28;20067;-64
2023/06/04 11:20:48;;;;;;;5.93;2.00;;;;;;;26.30;22.15;102030.91;5093020;28;20028;-64
2023/06/04 11:23:17;;;;;;;1.70;1.60;;;;;;;26.26;23.64;102033.09;5093278;28;20035;-62